This is the latest recevied weather packets stored in our database for station/object SQ6ELQ-11. If no packets are shown the sender has not sent any weather packets the latest 10 day(s).
| Time | Temp. | Humidity | Pressure | Rain* | Wind** | Luminosity | Snow |
|---|---|---|---|---|---|---|---|
| 1777780371 | 12.22° C | 38% | 1018 hPa | 0 mm | - | - | - |
| 1777779284 | 11.67° C | 38% | 1018 hPa | 0 mm | - | - | - |
| 1777778267 | 11.67° C | 38% | 1018 hPa | 0 mm | - | - | - |
| 1777777153 | 11.67° C | 37% | 1018 hPa | 0 mm | - | - | - |
| 1777775981 | 12.78° C | 36% | 1018.1 hPa | 0 mm | - | - | - |
| 1777774986 | 12.78° C | 36% | 1018.1 hPa | 0 mm | - | - | - |
| 1777773911 | 12.78° C | 36% | 1018.1 hPa | 0 mm | - | - | - |
| 1777772802 | 12.22° C | 36% | 1018.3 hPa | 0 mm | - | - | - |
| 1777771753 | 12.78° C | 36% | 1018.3 hPa | 0 mm | - | - | - |
| 1777770676 | 12.78° C | 36% | 1018.3 hPa | 0 mm | - | - | - |
| 1777769591 | 12.78° C | 36% | 1018.4 hPa | 0 mm | - | - | - |
| 1777768511 | 13.33° C | 36% | 1018.6 hPa | 0 mm | - | - | - |
| 1777767379 | 13.33° C | 37% | 1018.7 hPa | 0 mm | - | - | - |
| 1777766305 | 12.22° C | 41% | 1018.8 hPa | 0 mm | - | - | - |
| 1777765241 | 7.22° C | 49% | 1019.1 hPa | 0 mm | - | - | - |
| 1777764226 | 6.11° C | 54% | 1019.3 hPa | 0 mm | - | - | - |
| 1777763176 | 6.11° C | 53% | 1019.2 hPa | 0 mm | - | - | - |
| 1777762151 | 6.11° C | 50% | 1019.4 hPa | 0 mm | - | - | - |
| 1777761121 | 6.67° C | 51% | 1019.4 hPa | 0 mm | - | - | - |
| 1777759974 | 7.22° C | 47% | 1019.7 hPa | 0 mm | - | - | - |
| 1777758966 | 7.78° C | 50% | 1019.5 hPa | 0 mm | - | - | - |
| 1777757840 | 7.78° C | 50% | 1019.5 hPa | 0 mm | - | - | - |
| 1777756701 | 8.33° C | 47% | 1019.6 hPa | 0 mm | - | - | - |
| 1777755625 | 8.89° C | 47% | 1019.9 hPa | 0 mm | - | - | - |
| 1777754547 | 8.89° C | 46% | 1019.9 hPa | 0 mm | - | - | - |
* Rain latest hour (hover to see other rain measurements)
** Current wind speed in m/s (hover to see current wind gust speed)